BIRK

Reykjavik Airport

Reykjavik, Iceland

BIRK 221800Z 29008KT CAVOK 13/07 Q1019

Observed Flight Rules
Aug-22 @ 18:00 UTC (47 minutes ago)
 
Visual Flight Rules
Wind Visibility Clouds
290° at 8 knots 10,000+ meters
  • Clear skies
Temperatures Readings
Current 13°C / 55°F
Dewpoint 7°C / 45°F
Humidity 67%
Altimeter 30.09" Hg
Pressure 1019 hPa
Elevation 61
Observed Flight Rules
Aug-22 @ 18:00 UTC
(47 minutes ago)
 
VFR
Wind Visibility
290° at 8 knots 10,000+ meters
Clouds
  • Clear skies
Temperature Dewpoint
13°C / 55°F 7°C / 45°F
Humidity Altimeter Pressure
67% 30.09" Hg 1019 hPa